Reynolds, Nebraska
Current Conditions -  °F | °C
As of 10:35 AM on Wednesday 22 Oct 2014 (Local Time) from KHJH Reporting Station
Clear Clear  
Wind Chill: 67°   Ceiling: Unl
Heat Index: 67°   Visibility: 10mi
Dew Point: 53°   Wind: 13mph
Humidity: 62%   Direction: 170°S
Pressure: 30.06"   Gusts: NA
Location:  40.06°N, 97.34°W
Report Text: KHJH 221535Z AUTO 17011KT 10SM CLR 19/12 A3006 RMK AO2 T01920117
Loading
Personal Weather Stations






























Interactive Weather Map
Tropical Storm Tracking
New forecast layout! Learn more

10-Day Weather Forecast

Advertisements
Track Severe Weather on mobile